Time;durP1;ratioP1;P1;durP2;ratioP2;P2;SDS_P1;SDS_P2;PMS_P1;PMS_P2;Temp;Humidity;BMP_temperature;BMP_pressure;BME280_temperature;BME280_humidity;BME280_pressure;Samples;Min_cycle;Max_cycle;Signal;HPM_P1;HPM_P2
2022/07/17 04:02:21;;;;;;;3.10;1.80;;;11.10;96.30;;;;;;5212821;23;21004;-77
2022/07/17 04:04:46;;;;;;;4.40;1.80;;;11.50;96.30;;;;;;5012129;28;20427;-79
2022/07/17 04:07:26;;;;;;;3.13;1.50;;;11.80;96.30;;;;;;5014824;28;20173;-78
2022/07/17 04:09:53;;;;;;;3.47;1.47;;;12.40;96.30;;;;;;5013229;28;20169;-78
2022/07/17 04:12:19;;;;;;;2.00;1.20;;;13.20;96.30;;;;;;5012965;28;20803;-78
2022/07/17 04:14:44;;;;;;;1.83;1.40;;;13.40;96.30;;;;;;5014165;28;20915;-77
2022/07/17 04:17:10;;;;;;;4.63;1.47;;;13.50;96.30;;;;;;5021189;28;20188;-80
2022/07/17 04:19:35;;;;;;;2.50;1.47;;;13.90;96.30;;;;;;5007275;28;20185;-80
2022/07/17 04:29:47;;;;;;;10.90;1.57;;;14.50;96.30;;;;;;5520713;23;20999;-79
2022/07/17 04:32:13;;;;;;;2.37;1.43;;;15.20;96.30;;;;;;4975969;28;20441;-79
2022/07/17 04:34:38;;;;;;;2.93;1.30;;;16.00;94.90;;;;;;4977507;28;20202;-79
2022/07/17 04:37:04;;;;;;;1.83;1.20;;;16.30;93.70;;;;;;4997010;28;20301;-79
2022/07/17 04:39:29;;;;;;;6.30;1.60;;;17.00;91.20;;;;;;4996790;28;20200;-79
2022/07/17 04:41:55;;;;;;;2.23;1.40;;;17.30;89.70;;;;;;4996774;28;20213;-79
2022/07/17 04:44:21;;;;;;;4.10;1.50;;;17.10;89.70;;;;;;4997043;28;20170;-79
2022/07/17 04:46:46;;;;;;;2.43;1.30;;;17.00;90.60;;;;;;4996347;28;20236;-79
2022/07/17 04:49:12;;;;;;;5.80;1.97;;;17.20;90.40;;;;;;4996341;28;20176;-80
2022/07/17 04:51:37;;;;;;;3.43;1.53;;;17.30;91.40;;;;;;4997234;28;20208;-79
2022/07/17 04:54:03;;;;;;;3.47;1.10;;;18.20;87.50;;;;;;4996934;28;20209;-79
2022/07/17 04:56:29;;;;;;;2.00;1.50;;;18.10;88.30;;;;;;4996700;28;20173;-79
2022/07/17 04:58:54;;;;;;;3.57;1.30;;;18.30;86.50;;;;;;4996472;28;20174;-79
2022/07/17 05:01:20;;;;;;;2.77;1.43;;;18.50;86.50;;;;;;4994891;28;20220;-79
2022/07/17 05:03:45;;;;;;;2.53;1.33;;;18.80;86.10;;;;;;4997304;28;20659;-79
2022/07/17 05:06:11;;;;;;;4.13;1.70;;;19.20;85.00;;;;;;4997063;28;20696;-79
2022/07/17 05:08:37;;;;;;;2.40;1.40;;;18.90;85.30;;;;;;4996806;28;20260;-79
2022/07/17 05:11:02;;;;;;;3.43;1.37;;;19.30;84.70;;;;;;4998082;28;20209;-79
2022/07/17 05:13:28;;;;;;;6.93;1.10;;;18.90;84.70;;;;;;4998789;28;20720;-79
2022/07/17 05:15:53;;;;;;;5.63;1.80;;;19.10;85.30;;;;;;4997988;28;20182;-79
2022/07/17 05:18:19;;;;;;;3.97;1.20;;;19.40;84.20;;;;;;4997346;28;20177;-79
2022/07/17 05:20:44;;;;;;;2.90;1.43;;;19.40;82.90;;;;;;4997967;28;20653;-79
2022/07/17 05:23:10;;;;;;;2.37;1.10;;;20.10;81.70;;;;;;4996168;28;20559;-79
2022/07/17 05:25:35;;;;;;;2.73;1.30;;;20.40;81.60;;;;;;4998154;28;20177;-79
2022/07/17 05:28:02;;;;;;;4.40;1.40;;;20.90;80.30;;;;;;4997503;28;20698;-79
2022/07/17 05:30:27;;;;;;;2.60;1.80;;;21.10;80.00;;;;;;4996189;28;20236;-79
2022/07/17 05:32:53;;;;;;;2.27;1.33;;;21.40;79.30;;;;;;4997070;28;20927;-80
2022/07/17 05:35:19;;;;;;;3.40;1.50;;;21.70;79.20;;;;;;4998708;28;20177;-80
2022/07/17 05:37:44;;;;;;;3.27;1.30;;;22.40;77.50;;;;;;4998788;28;20173;-80
2022/07/17 05:40:10;;;;;;;2.37;1.30;;;22.20;76.10;;;;;;4999283;28;20208;-80
2022/07/17 05:42:35;;;;;;;7.50;1.47;;;20.90;81.10;;;;;;4999474;28;20199;-80
2022/07/17 05:45:01;;;;;;;4.10;1.63;;;21.60;78.60;;;;;;4996388;28;20208;-80
2022/07/17 05:47:26;;;;;;;3.43;1.53;;;22.70;76.10;;;;;;4996021;28;20172;-80
2022/07/17 05:49:52;;;;;;;2.33;1.00;;;23.10;74.20;;;;;;4997572;28;20165;-80
2022/07/17 05:52:17;;;;;;;2.20;1.27;;;23.10;74.10;;;;;;4998138;28;20831;-79
2022/07/17 05:54:43;;;;;;;1.93;1.10;;;22.70;76.30;;;;;;4997961;28;20185;-80
2022/07/17 05:57:09;;;;;;;2.90;1.30;;;22.60;77.20;;;;;;4999935;28;20181;-81
2022/07/17 05:59:34;;;;;;;2.40;1.27;;;23.10;75.20;;;;;;5000288;28;20188;-80
2022/07/17 06:02:00;;;;;;;2.00;1.50;;;23.80;74.10;;;;;;5000902;28;20240;-80
2022/07/17 06:04:26;;;;;;;5.60;1.47;;;23.20;74.10;;;;;;5002226;28;20181;-81
2022/07/17 06:06:51;;;;;;;5.07;1.63;;;23.80;75.50;;;;;;5002391;28;20489;-81
2022/07/17 06:09:17;;;;;;;2.83;1.10;;;24.60;75.40;;;;;;5001085;28;20200;-81
2022/07/17 06:11:42;;;;;;;2.00;1.40;;;24.80;72.30;;;;;;5002177;28;20531;-80
2022/07/17 06:14:08;;;;;;;3.50;1.67;;;23.70;74.00;;;;;;5004891;28;20177;-81
2022/07/17 06:16:33;;;;;;;3.73;1.73;;;24.50;73.30;;;;;;5004144;28;20185;-81
2022/07/17 06:18:59;;;;;;;3.20;1.70;;;25.40;72.30;;;;;;5006343;28;20252;-81
2022/07/17 06:21:24;;;;;;;2.23;1.50;;;25.80;69.10;;;;;;5005089;28;20223;-80
2022/07/17 06:23:50;;;;;;;8.00;1.50;;;26.30;70.40;;;;;;5005187;28;20176;-81
2022/07/17 06:26:15;;;;;;;3.27;1.37;;;26.10;69.80;;;;;;5004809;28;20545;-81
2022/07/17 06:28:41;;;;;;;4.50;1.50;;;27.50;69.70;;;;;;5002899;28;20173;-81
2022/07/17 06:31:06;;;;;;;4.93;1.80;;;27.20;66.70;;;;;;5003443;28;20641;-81
2022/07/17 06:33:32;;;;;;;4.30;1.50;;;27.10;67.60;;;;;;5004349;28;20296;-80
2022/07/17 06:35:57;;;;;;;3.40;1.37;;;27.20;67.70;;;;;;5004823;28;20185;-80
2022/07/17 06:38:23;;;;;;;3.03;1.30;;;25.80;67.90;;;;;;5001231;28;20181;-80
2022/07/17 06:40:49;;;;;;;4.57;1.40;;;25.80;71.10;;;;;;5002667;28;20215;-81
2022/07/17 06:43:15;;;;;;;3.33;1.33;;;26.50;67.50;;;;;;5002126;28;20173;-81
2022/07/17 06:45:40;;;;;;;2.50;1.47;;;26.60;68.60;;;;;;5004364;28;20416;-81
2022/07/17 06:48:06;;;;;;;2.43;1.30;;;27.50;68.00;;;;;;5002847;28;20211;-80
2022/07/17 06:50:31;;;;;;;6.23;1.50;;;25.60;69.10;;;;;;5002318;28;20600;-80
2022/07/17 06:52:58;;;;;;;3.63;1.70;;;26.10;71.00;;;;;;5003241;28;20181;-80
2022/07/17 06:55:23;;;;;;;5.50;1.23;;;27.30;68.30;;;;;;5001613;28;20248;-80
2022/07/17 06:57:49;;;;;;;5.10;1.40;;;28.10;66.20;;;;;;5004322;28;20456;-81
2022/07/17 07:00:15;;;;;;;9.40;1.50;;;28.70;64.80;;;;;;5002446;28;20530;-81
2022/07/17 07:02:40;;;;;;;4.82;1.52;;;29.00;63.50;;;;;;5002119;28;20185;-80
2022/07/17 07:05:06;;;;;;;4.75;1.85;;;28.70;63.20;;;;;;5003047;28;20179;-80
2022/07/17 07:07:31;;;;;;;7.33;2.00;;;28.30;61.40;;;;;;5001911;28;20711;-80
2022/07/17 07:09:57;;;;;;;7.80;1.50;;;27.10;62.90;;;;;;5000547;28;20185;-80
2022/07/17 07:12:22;;;;;;;6.90;1.20;;;26.70;66.40;;;;;;5000189;28;20677;-79
2022/07/17 07:14:48;;;;;;;4.37;1.43;;;26.80;67.70;;;;;;4999863;28;20207;-80
2022/07/17 07:17:13;;;;;;;4.80;1.00;;;26.80;67.80;;;;;;5000993;28;20204;-80
2022/07/17 07:19:39;;;;;;;7.37;1.60;;;27.40;63.50;;;;;;5002305;28;20177;-80
2022/07/17 07:22:04;;;;;;;4.03;1.20;;;27.00;64.40;;;;;;5001889;28;20205;-80
2022/07/17 07:24:30;;;;;;;9.93;1.60;;;26.50;65.20;;;;;;5003883;28;20193;-80
2022/07/17 07:26:55;;;;;;;4.90;1.50;;;27.10;68.00;;;;;;5002595;28;20189;-80
2022/07/17 07:29:21;;;;;;;5.70;1.20;;;27.70;65.90;;;;;;5001186;28;20251;-80
2022/07/17 07:31:47;;;;;;;8.17;1.70;;;26.20;64.20;;;;;;5000003;28;20201;-80
2022/07/17 07:34:13;;;;;;;5.53;1.50;;;26.60;66.30;;;;;;4999510;28;20196;-80
2022/07/17 07:36:38;;;;;;;4.90;1.93;;;26.50;68.60;;;;;;4999211;28;20412;-79
2022/07/17 07:39:04;;;;;;;4.90;2.00;;;27.00;67.20;;;;;;4995801;28;20181;-77
2022/07/17 07:41:29;;;;;;;4.60;1.53;;;27.80;67.80;;;;;;4994762;28;20335;-78
2022/07/17 07:43:55;;;;;;;8.37;1.77;;;27.60;66.20;;;;;;4993927;28;20539;-78
2022/07/17 07:46:20;;;;;;;5.40;1.70;;;27.00;65.80;;;;;;4995373;28;20640;-77
2022/07/17 07:48:46;;;;;;;5.07;1.37;;;26.70;68.60;;;;;;4990840;28;20186;-78
2022/07/17 07:51:12;;;;;;;4.70;1.87;;;26.50;69.50;;;;;;4977858;28;20265;-78
2022/07/17 07:53:37;;;;;;;7.70;1.70;;;26.80;67.70;;;;;;5121221;23;20192;-78
2022/07/17 07:56:03;;;;;;;4.67;1.40;;;27.00;70.70;;;;;;4946720;28;20486;-77
2022/07/17 07:58:29;;;;;;;7.90;2.00;;;26.70;67.30;;;;;;4954341;28;20210;-77
2022/07/17 08:00:54;;;;;;;4.30;1.20;;;26.70;68.70;;;;;;4956183;28;20248;-75
2022/07/17 08:03:20;;;;;;;5.07;1.70;;;26.20;68.90;;;;;;4947601;28;20176;-76
2022/07/17 08:05:46;;;;;;;3.37;1.40;;;26.10;71.60;;;;;;4937058;29;20202;-76
2022/07/17 08:08:11;;;;;;;5.43;1.60;;;25.70;70.00;;;;;;4936214;29;20171;-77
2022/07/17 08:10:36;;;;;;;6.50;1.80;;;25.40;70.40;;;;;;4938212;29;20534;-76
2022/07/17 08:13:02;;;;;;;5.30;1.53;;;25.60;68.40;;;;;;4937259;29;20183;-77
2022/07/17 08:15:28;;;;;;;4.60;1.73;;;25.20;67.40;;;;;;4937917;29;20697;-79
2022/07/17 08:17:54;;;;;;;5.50;1.40;;;26.50;68.20;;;;;;4936940;29;20230;-78
2022/07/17 08:20:21;;;;;;;3.30;1.40;;;26.10;69.80;;;;;;4936465;29;20175;-77
2022/07/17 08:22:47;;;;;;;4.83;1.50;;;26.20;70.40;;;;;;4937500;29;20544;-76
2022/07/17 08:25:13;;;;;;;7.93;1.40;;;26.40;69.70;;;;;;4937057;29;20931;-76
2022/07/17 08:27:41;;;;;;;3.87;1.37;;;27.50;67.10;;;;;;4936893;29;20406;-76
2022/07/17 08:30:09;;;;;;;5.23;1.63;;;27.80;69.70;;;;;;4951279;29;20266;-76
2022/07/17 08:32:38;;;;;;;8.10;1.30;;;27.90;66.60;;;;;;4931869;28;20435;-78
2022/07/17 08:35:04;;;;;;;3.10;1.30;;;27.70;67.60;;;;;;4939890;29;21147;-79
2022/07/17 08:37:30;;;;;;;3.47;1.37;;;27.80;66.30;;;;;;4939178;29;20778;-80
2022/07/17 08:39:56;;;;;;;2.90;1.20;;;27.50;66.10;;;;;;4946289;29;20422;-81
2022/07/17 08:42:22;;;;;;;5.50;1.67;;;27.40;66.10;;;;;;4962087;28;20241;-80
2022/07/17 08:44:48;;;;;;;4.80;1.60;;;26.80;64.60;;;;;;4960818;28;20513;-81
2022/07/17 08:47:14;;;;;;;4.10;1.67;;;27.40;64.50;;;;;;4960250;28;20433;-80
2022/07/17 08:49:45;;;;;;;4.20;1.47;;;26.70;66.10;;;;;;4961177;29;20185;-82
2022/07/17 08:52:14;;;;;;;2.43;1.37;;;26.60;69.00;;;;;;4945665;28;20435;-79
2022/07/17 08:54:41;;;;;;;4.30;1.27;;;27.30;67.90;;;;;;4938948;29;20447;-80
2022/07/17 08:57:07;;;;;;;3.80;1.33;;;27.50;64.90;;;;;;4937902;29;20427;-79
2022/07/17 08:59:32;;;;;;;3.30;1.40;;;26.70;67.60;;;;;;4940551;29;20497;-79
2022/07/17 09:01:59;;;;;;;4.80;1.60;;;27.00;70.40;;;;;;4941337;29;21009;-79
2022/07/17 09:04:25;;;;;;;6.80;1.40;;;26.90;67.00;;;;;;4940035;29;20198;-80
2022/07/17 09:07:04;;;;;;;5.30;1.67;;;26.90;68.10;;;;;;4934475;29;20427;-78
2022/07/17 09:09:33;;;;;;;4.30;1.27;;;27.10;68.80;;;;;;4933121;29;20202;-76
2022/07/17 09:12:00;;;;;;;2.80;1.03;;;26.20;65.80;;;;;;4936900;29;20438;-75
2022/07/17 09:14:39;;;;;;;3.27;1.30;;;26.20;65.40;;;;;;4935822;28;20462;-75
2022/07/17 09:17:06;;;;;;;3.20;1.30;;;26.00;66.10;;;;;;4935163;29;20426;-75
2022/07/17 09:19:45;;;;;;;2.27;1.10;;;26.50;70.00;;;;;;4934949;29;20430;-76
2022/07/17 09:22:29;;;;;;;2.93;1.40;;;27.00;68.00;;;;;;4930781;29;20494;-75
2022/07/17 09:24:57;;;;;;;4.97;1.27;;;27.30;65.80;;;;;;4923401;29;20431;-75
2022/07/17 09:27:23;;;;;;;4.97;1.60;;;27.50;66.00;;;;;;4931800;29;20423;-76
2022/07/17 09:30:01;;;;;;;1.70;1.07;;;26.60;68.30;;;;;;4930025;29;20431;-76
2022/07/17 09:32:30;;;;;;;6.73;1.30;;;26.50;65.70;;;;;;4928232;29;20190;-75
2022/07/17 09:34:57;;;;;;;9.17;1.70;;;25.70;64.90;;;;;;4933829;29;20473;-76
2022/07/17 09:37:24;;;;;;;4.60;1.50;;;25.50;69.10;;;;;;4941727;28;20445;-75
2022/07/17 09:39:51;;;;;;;7.07;1.33;;;25.60;71.30;;;;;;4930517;29;20451;-76
2022/07/17 09:42:29;;;;;;;4.07;1.20;;;25.30;67.80;;;;;;4944448;29;20466;-77
2022/07/17 09:45:09;;;;;;;4.33;1.50;;;24.30;70.30;;;;;;4935819;28;20451;-75
2022/07/17 09:47:37;;;;;;;4.37;1.43;;;23.60;68.60;;;;;;4950935;28;20419;-79
2022/07/17 09:50:06;;;;;;;7.03;1.33;;;24.00;73.30;;;;;;4951082;29;20415;-79
2022/07/17 09:52:35;;;;;;;4.90;1.50;;;24.20;69.80;;;;;;4944860;28;20453;-80
2022/07/17 09:55:01;;;;;;;3.90;1.50;;;23.40;71.90;;;;;;4944083;28;20489;-79
2022/07/17 09:57:30;;;;;;;7.20;1.20;;;24.40;74.20;;;;;;4943528;28;20438;-80
2022/07/17 09:59:59;;;;;;;2.90;1.10;;;24.50;73.10;;;;;;4948194;29;20427;-80
2022/07/17 10:02:25;;;;;;;3.20;1.10;;;25.30;71.30;;;;;;4957873;29;20480;-80
2022/07/17 10:04:51;;;;;;;4.57;1.20;;;24.60;68.30;;;;;;4934078;29;20545;-77
2022/07/17 10:07:17;;;;;;;3.63;1.40;;;25.40;70.00;;;;;;4933235;29;20278;-79
2022/07/17 10:09:43;;;;;;;6.20;1.43;;;25.20;68.90;;;;;;4934584;29;20455;-80
2022/07/17 10:12:09;;;;;;;5.77;1.60;;;25.80;71.10;;;;;;4951418;29;20202;-80
2022/07/17 10:14:38;;;;;;;4.00;1.30;;;26.10;69.10;;;;;;4928838;28;20203;-76
2022/07/17 10:17:12;;;;;;;2.33;1.10;;;26.30;65.40;;;;;;4938544;29;20414;-79
2022/07/17 10:19:47;;;;;;;3.23;1.23;;;26.00;66.40;;;;;;4940271;29;21032;-76
2022/07/17 10:22:13;;;;;;;1.87;1.20;;;25.30;68.30;;;;;;4945882;29;20515;-76
2022/07/17 10:24:50;;;;;;;8.70;1.33;;;25.00;67.10;;;;;;4953831;28;20839;-76
2022/07/17 10:27:25;;;;;;;2.90;1.20;;;25.60;70.50;;;;;;4953647;28;20170;-77
2022/07/17 10:30:00;;;;;;;5.40;1.30;;;26.00;67.00;;;;;;4937500;28;20415;-76
2022/07/17 10:32:26;;;;;;;3.03;1.13;;;26.60;70.10;;;;;;4934598;29;20438;-77
2022/07/17 10:35:06;;;;;;;2.60;1.20;;;26.70;61.60;;;;;;4934524;29;20473;-76
2022/07/17 10:37:38;;;;;;;4.83;1.10;;;25.90;64.50;;;;;;4933376;29;20591;-76
2022/07/17 10:40:04;;;;;;;2.37;1.10;;;26.20;67.60;;;;;;4940450;29;20422;-76
2022/07/17 10:42:58;;;;;;;2.07;1.00;;;26.20;66.70;;;;;;4947925;28;20471;-76
2022/07/17 10:45:35;;;;;;;4.47;1.70;;;26.50;67.40;;;;;;4934851;29;20223;-77
2022/07/17 10:48:08;;;;;;;3.87;1.50;;;26.60;67.50;;;;;;4933052;29;20422;-76
2022/07/17 10:50:45;;;;;;;6.97;1.23;;;25.30;63.40;;;;;;4933445;29;20787;-76
2022/07/17 10:53:16;;;;;;;3.13;1.63;;;25.80;71.00;;;;;;4934663;29;20419;-76
2022/07/17 10:55:43;;;;;;;2.03;1.40;;;27.00;66.30;;;;;;4933688;29;20477;-78
2022/07/17 10:58:22;;;;;;;7.67;1.60;;;27.60;64.70;;;;;;4930035;29;20455;-79
2022/07/17 11:01:05;;;;;;;2.43;1.03;;;27.40;62.80;;;;;;4936099;29;20466;-78
2022/07/17 11:03:55;;;;;;;2.47;0.90;;;27.80;63.70;;;;;;4933835;29;20425;-76
2022/07/17 11:06:27;;;;;;;2.60;1.17;;;27.60;62.60;;;;;;4937832;29;20449;-79
2022/07/17 11:09:04;;;;;;;3.87;1.20;;;27.50;61.10;;;;;;4940420;29;20434;-80
2022/07/17 11:11:37;;;;;;;2.43;1.10;;;26.90;66.40;;;;;;4933533;29;21000;-79
2022/07/17 11:14:24;;;;;;;3.90;1.33;;;27.40;64.80;;;;;;4932858;29;20439;-79
2022/07/17 11:17:01;;;;;;;4.60;1.10;;;26.90;62.40;;;;;;4939961;29;20450;-79
2022/07/17 11:19:32;;;;;;;4.53;1.50;;;26.00;66.80;;;;;;4939763;29;20419;-79
2022/07/17 11:22:00;;;;;;;21.80;1.40;;;25.10;67.00;;;;;;4941591;29;20461;-79
2022/07/17 11:24:45;;;;;;;4.47;1.37;;;24.50;66.70;;;;;;4939516;29;20431;-79
2022/07/17 11:27:13;;;;;;;3.97;1.50;;;24.50;69.00;;;;;;4941176;29;20415;-77
2022/07/17 11:29:40;;;;;;;2.70;1.10;;;25.10;68.70;;;;;;4941284;29;20783;-79
2022/07/17 11:32:06;;;;;;;9.97;1.40;;;25.10;65.90;;;;;;4940907;29;20418;-79
2022/07/17 11:34:31;;;;;;;3.90;1.50;;;25.30;64.30;;;;;;4941258;29;20447;-79
2022/07/17 11:37:01;;;;;;;4.57;1.27;;;24.90;64.30;;;;;;4959464;28;20238;-79
2022/07/17 11:39:37;;;;;;;3.87;1.20;;;24.70;62.60;;;;;;4958312;28;20250;-79
2022/07/17 11:42:03;;;;;;;5.60;1.23;;;25.50;69.10;;;;;;4940549;29;20474;-79
2022/07/17 11:44:29;;;;;;;7.97;1.70;;;25.20;65.60;;;;;;4940526;29;20443;-79
2022/07/17 11:46:54;;;;;;;3.43;1.20;;;24.90;73.30;;;;;;4941669;29;20234;-79
2022/07/17 11:49:24;;;;;;;4.67;1.30;;;25.40;63.30;;;;;;4941462;29;20268;-79
2022/07/17 11:51:49;;;;;;;2.20;1.30;;;25.30;66.80;;;;;;4942093;29;20606;-80
2022/07/17 11:54:16;;;;;;;2.73;1.00;;;25.90;66.80;;;;;;4942228;29;20490;-79
2022/07/17 11:56:50;;;;;;;4.17;1.10;;;26.20;70.20;;;;;;4941858;29;20186;-79
2022/07/17 11:59:25;;;;;;;5.30;1.43;;;25.80;68.70;;;;;;4942669;29;20426;-80
2022/07/17 12:01:50;;;;;;;2.57;1.10;;;26.10;68.10;;;;;;4943201;29;20454;-80
2022/07/17 12:04:16;;;;;;;3.80;1.47;;;26.70;70.00;;;;;;4962281;28;20441;-80
2022/07/17 12:06:41;;;;;;;1.93;0.87;;;27.30;66.40;;;;;;4962428;28;20185;-79
2022/07/17 12:09:07;;;;;;;3.30;1.43;;;27.20;66.60;;;;;;4952930;28;20582;-79
2022/07/17 12:11:45;;;;;;;5.63;1.60;;;26.80;65.70;;;;;;4941916;29;20187;-79
2022/07/17 12:14:10;;;;;;;5.27;1.27;;;26.80;64.40;;;;;;4936031;29;20207;-76
2022/07/17 12:16:36;;;;;;;4.10;1.60;;;26.40;67.70;;;;;;4917245;28;20428;-76
2022/07/17 12:19:10;;;;;;;2.60;1.03;;;26.20;65.60;;;;;;4917903;29;20179;-76
2022/07/17 12:21:55;;;;;;;3.03;1.43;;;26.30;67.90;;;;;;4917667;29;20506;-76
2022/07/17 12:24:25;;;;;;;6.40;2.00;;;25.90;63.80;;;;;;4917427;29;20440;-76
2022/07/17 12:26:51;;;;;;;3.20;1.10;;;25.60;66.40;;;;;;4916357;29;20789;-76
2022/07/17 12:29:17;;;;;;;6.03;1.20;;;26.00;68.10;;;;;;4916119;29;20427;-76
2022/07/17 12:31:43;;;;;;;3.97;1.27;;;25.90;61.90;;;;;;4917628;29;20511;-76
2022/07/17 12:34:08;;;;;;;5.17;1.10;;;25.70;64.10;;;;;;4917578;29;20199;-77
2022/07/17 12:36:34;;;;;;;5.10;1.20;;;26.30;65.70;;;;;;4917586;29;20183;-76
2022/07/17 12:38:59;;;;;;;3.87;1.43;;;25.80;63.60;;;;;;4917234;29;20195;-76
2022/07/17 12:41:25;;;;;;;2.30;1.40;;;25.20;65.10;;;;;;4950182;29;20281;-76
2022/07/17 12:43:51;;;;;;;3.60;1.20;;;25.90;66.20;;;;;;4955254;28;20183;-77
2022/07/17 12:46:16;;;;;;;3.23;1.37;;;26.20;65.30;;;;;;4955431;28;20220;-76
2022/07/17 12:48:43;;;;;;;4.03;1.20;;;26.40;64.00;;;;;;4953748;28;20180;-75
2022/07/17 12:51:15;;;;;;;5.60;1.47;;;25.50;62.70;;;;;;4955324;28;20197;-75
2022/07/17 12:53:41;;;;;;;6.83;1.93;;;25.10;64.50;;;;;;4953684;28;20802;-75
2022/07/17 12:56:08;;;;;;;2.27;1.13;;;25.00;65.80;;;;;;4955212;28;20429;-76
2022/07/17 12:58:34;;;;;;;2.20;1.00;;;25.70;64.20;;;;;;4954925;28;20442;-75
2022/07/17 13:01:00;;;;;;;3.70;1.50;;;25.80;62.10;;;;;;4955020;28;20533;-76
2022/07/17 13:03:26;;;;;;;7.77;0.90;;;25.50;63.80;;;;;;4941929;28;20999;-76
2022/07/17 13:05:52;;;;;;;5.17;1.20;;;26.00;63.00;;;;;;4935648;29;20183;-77
2022/07/17 13:08:17;;;;;;;2.73;1.10;;;26.70;62.20;;;;;;4934219;29;20175;-76
2022/07/17 13:10:43;;;;;;;2.23;1.00;;;26.20;60.90;;;;;;4935273;29;20175;-76
2022/07/17 13:13:08;;;;;;;3.43;1.20;;;26.40;63.40;;;;;;4935558;29;20186;-76
2022/07/17 13:15:34;;;;;;;2.53;1.00;;;27.00;61.00;;;;;;4935640;29;20307;-77
2022/07/17 13:18:00;;;;;;;5.67;1.40;;;26.50;57.80;;;;;;4935312;29;20192;-76
2022/07/17 13:20:26;;;;;;;5.50;1.63;;;26.30;60.50;;;;;;4935124;29;20179;-76
2022/07/17 13:22:51;;;;;;;2.80;1.63;;;26.30;62.80;;;;;;4935469;29;20407;-76
2022/07/17 13:25:17;;;;;;;4.10;1.10;;;25.80;60.00;;;;;;4935268;29;20435;-76
2022/07/17 13:27:42;;;;;;;1.53;1.00;;;25.70;59.80;;;;;;4935212;29;20973;-76
2022/07/17 13:30:09;;;;;;;2.60;1.03;;;25.80;58.70;;;;;;4935423;29;20235;-76
2022/07/17 13:32:34;;;;;;;2.43;1.00;;;25.60;58.50;;;;;;4935205;29;20242;-76
2022/07/17 13:35:00;;;;;;;2.00;0.90;;;26.00;60.90;;;;;;4935260;29;20434;-76
2022/07/17 13:37:25;;;;;;;2.10;1.00;;;26.50;60.10;;;;;;4935271;29;20187;-80
2022/07/17 13:39:51;;;;;;;8.27;1.30;;;26.70;59.70;;;;;;4939285;29;20190;-77
2022/07/17 13:42:16;;;;;;;4.00;0.90;;;27.00;61.70;;;;;;4954323;28;20718;-76
2022/07/17 13:44:42;;;;;;;2.30;1.00;;;27.20;62.20;;;;;;4954347;28;20195;-76
2022/07/17 13:47:07;;;;;;;4.37;1.27;;;27.40;62.80;;;;;;4954220;28;20180;-76
2022/07/17 13:49:33;;;;;;;2.40;1.00;;;26.80;60.70;;;;;;4954006;28;20539;-77
2022/07/17 13:51:59;;;;;;;1.40;0.93;;;26.50;62.80;;;;;;4954344;28;20229;-76
2022/07/17 13:54:25;;;;;;;3.30;1.20;;;26.50;61.70;;;;;;4953984;28;20273;-76
2022/07/17 13:56:52;;;;;;;2.80;0.97;;;27.20;63.30;;;;;;4954215;28;20177;-76
2022/07/17 13:59:18;;;;;;;8.13;2.17;;;27.00;58.30;;;;;;4954022;28;20414;-77
2022/07/17 14:01:43;;;;;;;4.50;1.13;;;27.20;60.10;;;;;;4952967;28;20818;-78
2022/07/17 14:04:09;;;;;;;2.90;1.10;;;27.40;60.10;;;;;;4936650;28;20203;-76
2022/07/17 14:06:34;;;;;;;2.23;1.00;;;27.20;58.30;;;;;;4933641;29;20183;-76
2022/07/17 14:09:00;;;;;;;3.03;0.90;;;26.80;58.80;;;;;;4936361;29;20625;-79
2022/07/17 14:11:25;;;;;;;2.13;1.03;;;26.60;56.70;;;;;;4939509;29;20205;-80
2022/07/17 14:19:02;;;;;;;1.87;0.83;;;26.70;59.00;;;;;;5992893;23;20774;-75
2022/07/17 14:21:29;;;;;;;2.30;1.00;;;27.00;58.30;;;;;;4991680;28;20459;-75
2022/07/17 14:23:54;;;;;;;4.63;0.97;;;27.20;59.90;;;;;;4992390;28;20176;-76
2022/07/17 14:26:20;;;;;;;1.33;1.17;;;27.60;58.00;;;;;;4991129;28;20931;-75
2022/07/17 14:28:45;;;;;;;1.93;1.10;;;27.50;55.80;;;;;;4992228;28;20223;-75
2022/07/17 14:31:11;;;;;;;2.70;1.23;;;27.10;56.30;;;;;;4992608;28;20169;-75
2022/07/17 14:33:36;;;;;;;2.60;0.80;;;26.40;57.40;;;;;;4993372;28;20238;-75
2022/07/17 14:36:02;;;;;;;3.43;1.10;;;26.70;58.30;;;;;;4996169;28;20275;-75
2022/07/17 14:38:27;;;;;;;1.43;0.87;;;26.60;58.20;;;;;;4995958;28;20180;-75
2022/07/17 14:40:53;;;;;;;2.67;1.10;;;27.00;59.20;;;;;;5008866;28;20655;-76
2022/07/17 14:43:18;;;;;;;3.27;1.83;;;27.20;56.00;;;;;;5014700;28;20259;-75
2022/07/17 14:45:44;;;;;;;2.70;1.03;;;27.00;55.10;;;;;;5015848;28;20713;-75
2022/07/17 14:48:10;;;;;;;3.60;0.90;;;27.00;58.20;;;;;;5015537;28;20184;-75
2022/07/17 14:50:36;;;;;;;2.63;1.00;;;26.80;54.90;;;;;;5014549;28;20207;-75
2022/07/17 14:53:01;;;;;;;3.23;1.13;;;26.60;55.10;;;;;;5015615;28;21174;-77
2022/07/17 14:55:27;;;;;;;3.80;0.97;;;26.30;57.50;;;;;;5017311;28;20208;-79
2022/07/17 14:57:53;;;;;;;4.80;0.90;;;25.30;55.20;;;;;;5017926;28;20180;-79
2022/07/17 15:00:18;;;;;;;6.40;1.00;;;25.80;58.50;;;;;;5019314;28;20184;-79
2022/07/17 15:02:44;;;;;;;4.33;1.00;;;26.00;60.70;;;;;;5012811;28;20215;-79
2022/07/17 15:05:09;;;;;;;2.97;1.10;;;26.00;57.90;;;;;;5000030;28;20219;-79
2022/07/17 15:07:34;;;;;;;2.43;0.87;;;26.10;56.20;;;;;;4999775;28;20586;-79
2022/07/17 15:10:00;;;;;;;1.70;0.97;;;25.80;58.20;;;;;;4999215;28;20173;-79
2022/07/17 15:12:25;;;;;;;2.57;0.80;;;25.90;58.10;;;;;;4999897;28;20177;-79
2022/07/17 15:14:51;;;;;;;2.83;1.00;;;26.10;57.80;;;;;;4999913;28;20205;-79
2022/07/17 15:17:16;;;;;;;1.83;0.93;;;26.30;60.40;;;;;;4999669;28;20180;-79
2022/07/17 15:19:42;;;;;;;2.13;0.83;;;25.50;56.20;;;;;;5000110;28;20224;-79
2022/07/17 15:22:07;;;;;;;2.63;0.80;;;25.40;58.90;;;;;;4999275;28;20242;-78
2022/07/17 15:24:33;;;;;;;5.43;1.10;;;25.10;59.80;;;;;;4999332;28;20196;-79
2022/07/17 15:26:58;;;;;;;2.50;1.20;;;25.10;60.10;;;;;;5000116;28;20181;-77
2022/07/17 15:29:24;;;;;;;2.67;0.83;;;25.00;60.10;;;;;;4998922;28;20252;-77
2022/07/17 15:31:49;;;;;;;4.63;1.07;;;25.00;60.30;;;;;;4999298;28;20181;-79
2022/07/17 15:34:15;;;;;;;1.53;0.80;;;25.10;59.30;;;;;;4998332;28;20192;-79
2022/07/17 15:36:41;;;;;;;3.30;1.10;;;24.50;60.90;;;;;;4993607;28;20212;-78
2022/07/17 15:39:06;;;;;;;4.47;1.50;;;24.70;59.60;;;;;;4980782;28;20193;-78
2022/07/17 15:41:32;;;;;;;3.10;0.93;;;25.40;60.80;;;;;;5012134;28;20204;-77
2022/07/17 15:43:57;;;;;;;2.73;0.87;;;25.80;59.90;;;;;;5014015;28;20173;-76
2022/07/17 15:46:23;;;;;;;6.50;1.00;;;25.70;60.60;;;;;;5014629;28;20184;-75
2022/07/17 15:48:49;;;;;;;9.47;1.07;;;25.50;58.40;;;;;;5014408;28;20196;-77
2022/07/17 15:51:14;;;;;;;6.43;1.00;;;25.60;59.00;;;;;;5014455;28;20176;-77
2022/07/17 15:53:41;;;;;;;3.90;0.90;;;25.80;58.20;;;;;;5013852;28;20180;-78
2022/07/17 15:56:06;;;;;;;2.03;0.70;;;25.70;56.40;;;;;;5003940;28;20538;-77
2022/07/17 15:58:32;;;;;;;2.10;0.80;;;25.40;57.70;;;;;;4991713;28;20531;-78
2022/07/17 16:00:57;;;;;;;2.50;0.70;;;25.00;56.90;;;;;;4994326;28;20201;-78
2022/07/17 16:03:23;;;;;;;2.60;1.13;;;24.90;58.90;;;;;;5011026;28;20204;-78
2022/07/17 16:05:48;;;;;;;2.40;0.90;;;25.00;59.10;;;;;;5002248;28;20204;-78
2022/07/17 16:08:14;;;;;;;1.33;0.73;;;25.00;58.20;;;;;;4995159;28;20174;-78
2022/07/17 16:10:39;;;;;;;2.50;1.10;;;25.20;58.70;;;;;;5012723;28;20173;-78
2022/07/17 16:13:05;;;;;;;2.07;0.70;;;25.10;56.80;;;;;;5015755;28;20536;-79
2022/07/17 16:15:30;;;;;;;1.63;0.80;;;25.00;59.60;;;;;;5012249;28;20188;-77
2022/07/17 16:17:56;;;;;;;1.33;0.80;;;25.10;60.00;;;;;;5003001;28;20176;-78
2022/07/17 16:20:23;;;;;;;3.37;1.10;;;25.30;60.40;;;;;;5015898;28;20557;-78
2022/07/17 16:22:49;;;;;;;3.43;0.90;;;25.30;57.90;;;;;;5010218;28;20304;-78
2022/07/17 16:25:15;;;;;;;4.83;1.00;;;25.50;60.40;;;;;;4995632;28;20519;-78
2022/07/17 16:27:40;;;;;;;5.13;1.07;;;25.60;57.80;;;;;;4995171;28;20447;-78
2022/07/17 16:30:07;;;;;;;6.93;1.20;;;25.30;59.70;;;;;;4996141;28;20272;-78
2022/07/17 16:32:34;;;;;;;1.93;1.00;;;25.40;59.90;;;;;;4996709;28;20191;-78
2022/07/17 16:35:00;;;;;;;4.50;0.83;;;25.20;57.80;;;;;;4998995;28;21075;-77
2022/07/17 16:37:25;;;;;;;4.90;1.60;;;25.00;58.10;;;;;;4996081;28;20424;-77
2022/07/17 16:39:51;;;;;;;2.87;1.10;;;24.60;58.00;;;;;;4997666;28;20664;-78
2022/07/17 16:42:16;;;;;;;2.00;0.90;;;24.30;57.50;;;;;;4996233;28;20213;-76
2022/07/17 16:44:42;;;;;;;4.70;0.90;;;24.30;58.80;;;;;;4994546;28;20567;-76
2022/07/17 16:47:08;;;;;;;4.70;1.27;;;24.30;58.40;;;;;;4994549;28;20530;-76
2022/07/17 16:49:34;;;;;;;1.10;0.70;;;24.30;57.70;;;;;;4994131;28;20408;-76
2022/07/17 16:51:59;;;;;;;1.93;0.90;;;24.40;57.70;;;;;;4993393;28;20209;-76
2022/07/17 16:54:25;;;;;;;2.90;0.90;;;24.30;58.90;;;;;;4997142;28;20605;-76
2022/07/17 16:56:51;;;;;;;2.50;1.00;;;24.10;57.60;;;;;;5003827;28;20589;-75
2022/07/17 16:59:16;;;;;;;1.40;1.20;;;23.80;58.90;;;;;;4993349;28;20181;-76
2022/07/17 17:01:42;;;;;;;4.20;1.20;;;23.50;58.60;;;;;;4989315;28;20205;-76